sensor_id;sensor_type;location;lat;lon;timestamp;temperature;humidity
10300;DHT22;5195;48.562;9.192;2023-07-02T00:01:50;21.90;55.50
10300;DHT22;5195;48.562;9.192;2023-07-02T00:04:26;22.00;55.60
10300;DHT22;5195;48.562;9.192;2023-07-02T00:07:01;21.80;55.60
10300;DHT22;5195;48.562;9.192;2023-07-02T00:09:38;21.40;55.90
10300;DHT22;5195;48.562;9.192;2023-07-02T00:12:13;21.20;56.30
10300;DHT22;5195;48.562;9.192;2023-07-02T00:14:49;21.40;56.40
10300;DHT22;5195;48.562;9.192;2023-07-02T00:17:25;21.70;55.20
10300;DHT22;5195;48.562;9.192;2023-07-02T00:20:01;21.60;55.10
10300;DHT22;5195;48.562;9.192;2023-07-02T00:22:37;21.80;55.50
10300;DHT22;5195;48.562;9.192;2023-07-02T00:25:13;22.00;54.90
10300;DHT22;5195;48.562;9.192;2023-07-02T00:27:49;21.80;55.00
10300;DHT22;5195;48.562;9.192;2023-07-02T00:30:24;21.80;54.50
10300;DHT22;5195;48.562;9.192;2023-07-02T00:33:01;21.60;54.70
10300;DHT22;5195;48.562;9.192;2023-07-02T00:35:36;21.30;55.20
10300;DHT22;5195;48.562;9.192;2023-07-02T00:38:13;21.70;54.80
10300;DHT22;5195;48.562;9.192;2023-07-02T00:40:48;21.60;54.70
10300;DHT22;5195;48.562;9.192;2023-07-02T00:43:24;21.60;54.70
10300;DHT22;5195;48.562;9.192;2023-07-02T00:45:59;21.30;54.90
10300;DHT22;5195;48.562;9.192;2023-07-02T00:48:35;21.00;55.10
10300;DHT22;5195;48.562;9.192;2023-07-02T00:51:11;21.20;54.70
10300;DHT22;5195;48.562;9.192;2023-07-02T00:53:47;21.60;53.90
10300;DHT22;5195;48.562;9.192;2023-07-02T00:56:22;21.50;53.80
10300;DHT22;5195;48.562;9.192;2023-07-02T00:58:57;21.60;53.30
10300;DHT22;5195;48.562;9.192;2023-07-02T01:01:33;21.40;53.40
10300;DHT22;5195;48.562;9.192;2023-07-02T01:04:08;21.60;53.40
10300;DHT22;5195;48.562;9.192;2023-07-02T01:06:45;21.80;52.80
10300;DHT22;5195;48.562;9.192;2023-07-02T01:09:21;21.70;52.90
10300;DHT22;5195;48.562;9.192;2023-07-02T01:11:57;21.40;53.30
10300;DHT22;5195;48.562;9.192;2023-07-02T01:14:33;21.30;53.30
10300;DHT22;5195;48.562;9.192;2023-07-02T01:17:08;21.20;53.30
10300;DHT22;5195;48.562;9.192;2023-07-02T01:19:52;21.20;53.20
10300;DHT22;5195;48.562;9.192;2023-07-02T01:22:27;21.00;53.50
10300;DHT22;5195;48.562;9.192;2023-07-02T01:25:02;21.30;53.40
10300;DHT22;5195;48.562;9.192;2023-07-02T01:27:37;21.20;53.30
10300;DHT22;5195;48.562;9.192;2023-07-02T01:30:14;21.00;53.50
10300;DHT22;5195;48.562;9.192;2023-07-02T01:32:50;20.80;53.70
10300;DHT22;5195;48.562;9.192;2023-07-02T01:35:26;21.10;53.30
10300;DHT22;5195;48.562;9.192;2023-07-02T01:38:02;21.00;53.30
10300;DHT22;5195;48.562;9.192;2023-07-02T01:40:37;20.80;53.40
10300;DHT22;5195;48.562;9.192;2023-07-02T01:43:13;20.70;53.70
10300;DHT22;5195;48.562;9.192;2023-07-02T01:45:48;20.90;53.60
10300;DHT22;5195;48.562;9.192;2023-07-02T01:48:25;21.20;52.70
10300;DHT22;5195;48.562;9.192;2023-07-02T01:51:02;21.10;52.60
10300;DHT22;5195;48.562;9.192;2023-07-02T01:53:38;21.20;52.50
10300;DHT22;5195;48.562;9.192;2023-07-02T01:56:13;21.40;52.00
10300;DHT22;5195;48.562;9.192;2023-07-02T01:58:49;21.20;52.30
10300;DHT22;5195;48.562;9.192;2023-07-02T02:01:24;20.90;52.90
10300;DHT22;5195;48.562;9.192;2023-07-02T02:04:03;20.80;54.10
10300;DHT22;5195;48.562;9.192;2023-07-02T02:06:40;21.20;53.60
10300;DHT22;5195;48.562;9.192;2023-07-02T02:09:16;21.20;53.40
10300;DHT22;5195;48.562;9.192;2023-07-02T02:11:52;21.40;52.90
10300;DHT22;5195;48.562;9.192;2023-07-02T02:14:27;21.60;52.60
10300;DHT22;5195;48.562;9.192;2023-07-02T02:17:04;21.40;52.70
10300;DHT22;5195;48.562;9.192;2023-07-02T02:19:39;21.40;52.70
10300;DHT22;5195;48.562;9.192;2023-07-02T02:22:15;21.20;52.80
10300;DHT22;5195;48.562;9.192;2023-07-02T02:24:51;21.10;53.70
10300;DHT22;5195;48.562;9.192;2023-07-02T02:27:27;21.00;52.90
10300;DHT22;5195;48.562;9.192;2023-07-02T02:30:03;21.40;52.60
10300;DHT22;5195;48.562;9.192;2023-07-02T02:32:39;21.00;52.80
10300;DHT22;5195;48.562;9.192;2023-07-02T02:35:14;21.00;52.80
10300;DHT22;5195;48.562;9.192;2023-07-02T02:37:50;20.80;53.20
10300;DHT22;5195;48.562;9.192;2023-07-02T02:40:25;20.90;53.10
10300;DHT22;5195;48.562;9.192;2023-07-02T02:43:01;20.90;53.20
10300;DHT22;5195;48.562;9.192;2023-07-02T02:45:36;21.10;53.60
10300;DHT22;5195;48.562;9.192;2023-07-02T02:48:12;21.10;53.50
10300;DHT22;5195;48.562;9.192;2023-07-02T02:50:48;20.80;53.70
10300;DHT22;5195;48.562;9.192;2023-07-02T02:53:24;21.00;54.20
10300;DHT22;5195;48.562;9.192;2023-07-02T02:56:00;21.40;53.90
10300;DHT22;5195;48.562;9.192;2023-07-02T02:58:35;21.70;53.40
10300;DHT22;5195;48.562;9.192;2023-07-02T03:01:11;21.50;53.30
10300;DHT22;5195;48.562;9.192;2023-07-02T03:03:46;21.20;53.70
10300;DHT22;5195;48.562;9.192;2023-07-02T03:06:22;20.90;54.10
10300;DHT22;5195;48.562;9.192;2023-07-02T03:08:58;21.10;54.40
10300;DHT22;5195;48.562;9.192;2023-07-02T03:11:33;21.00;54.10
10300;DHT22;5195;48.562;9.192;2023-07-02T03:14:09;20.70;54.40
10300;DHT22;5195;48.562;9.192;2023-07-02T03:16:44;20.50;55.00
10300;DHT22;5195;48.562;9.192;2023-07-02T03:19:21;20.40;56.90
10300;DHT22;5195;48.562;9.192;2023-07-02T03:21:56;20.40;56.90
10300;DHT22;5195;48.562;9.192;2023-07-02T03:24:32;20.30;56.40
10300;DHT22;5195;48.562;9.192;2023-07-02T03:27:08;20.60;56.90
10300;DHT22;5195;48.562;9.192;2023-07-02T03:29:44;20.60;56.40
10300;DHT22;5195;48.562;9.192;2023-07-02T03:32:19;20.40;56.10
10300;DHT22;5195;48.562;9.192;2023-07-02T03:34:55;20.00;56.60
10300;DHT22;5195;48.562;9.192;2023-07-02T03:37:30;19.60;57.00
10300;DHT22;5195;48.562;9.192;2023-07-02T03:40:06;19.30;57.30
10300;DHT22;5195;48.562;9.192;2023-07-02T03:42:43;19.70;57.90
10300;DHT22;5195;48.562;9.192;2023-07-02T03:45:18;19.70;57.90
10300;DHT22;5195;48.562;9.192;2023-07-02T03:47:54;19.50;57.60
10300;DHT22;5195;48.562;9.192;2023-07-02T03:50:29;19.10;58.40
10300;DHT22;5195;48.562;9.192;2023-07-02T03:53:05;18.90;59.00
10300;DHT22;5195;48.562;9.192;2023-07-02T03:55:41;19.00;59.60
10300;DHT22;5195;48.562;9.192;2023-07-02T03:58:16;18.80;59.70
10300;DHT22;5195;48.562;9.192;2023-07-02T04:00:52;18.60;60.10
10300;DHT22;5195;48.562;9.192;2023-07-02T04:03:27;18.70;61.10
10300;DHT22;5195;48.562;9.192;2023-07-02T04:06:03;19.40;60.60
10300;DHT22;5195;48.562;9.192;2023-07-02T04:08:43;19.40;60.60
10300;DHT22;5195;48.562;9.192;2023-07-02T04:11:18;19.60;59.90
10300;DHT22;5195;48.562;9.192;2023-07-02T04:13:53;19.70;59.30
10300;DHT22;5195;48.562;9.192;2023-07-02T04:16:29;19.90;59.00
10300;DHT22;5195;48.562;9.192;2023-07-02T04:19:05;19.60;59.20
10300;DHT22;5195;48.562;9.192;2023-07-02T04:21:40;19.50;59.40
10300;DHT22;5195;48.562;9.192;2023-07-02T04:24:16;19.40;60.00
10300;DHT22;5195;48.562;9.192;2023-07-02T04:26:51;19.00;60.50
10300;DHT22;5195;48.562;9.192;2023-07-02T04:29:27;19.20;60.50
10300;DHT22;5195;48.562;9.192;2023-07-02T04:32:04;19.60;60.30
10300;DHT22;5195;48.562;9.192;2023-07-02T04:34:39;19.60;59.70
10300;DHT22;5195;48.562;9.192;2023-07-02T04:37:15;19.40;60.00
10300;DHT22;5195;48.562;9.192;2023-07-02T04:39:50;19.10;60.80
10300;DHT22;5195;48.562;9.192;2023-07-02T04:42:26;18.90;61.40
10300;DHT22;5195;48.562;9.192;2023-07-02T04:45:02;18.60;61.90
10300;DHT22;5195;48.562;9.192;2023-07-02T04:47:37;18.90;62.70
10300;DHT22;5195;48.562;9.192;2023-07-02T04:50:13;18.90;62.60
10300;DHT22;5195;48.562;9.192;2023-07-02T04:52:48;18.80;63.10
10300;DHT22;5195;48.562;9.192;2023-07-02T04:55:24;18.70;63.50
10300;DHT22;5195;48.562;9.192;2023-07-02T04:58:00;19.00;63.30
10300;DHT22;5195;48.562;9.192;2023-07-02T05:00:36;19.00;63.20
10300;DHT22;5195;48.562;9.192;2023-07-02T05:03:12;19.40;62.10
10300;DHT22;5195;48.562;9.192;2023-07-02T05:05:47;19.80;61.10
10300;DHT22;5195;48.562;9.192;2023-07-02T05:08:23;19.70;61.00
10300;DHT22;5195;48.562;9.192;2023-07-02T05:10:58;19.50;61.70
10300;DHT22;5195;48.562;9.192;2023-07-02T05:13:34;19.60;61.30
10300;DHT22;5195;48.562;9.192;2023-07-02T05:16:09;20.00;60.50
10300;DHT22;5195;48.562;9.192;2023-07-02T05:18:45;20.00;60.60
10300;DHT22;5195;48.562;9.192;2023-07-02T05:21:21;20.10;60.20
10300;DHT22;5195;48.562;9.192;2023-07-02T05:23:57;20.20;60.30
10300;DHT22;5195;48.562;9.192;2023-07-02T05:26:32;20.20;60.30
10300;DHT22;5195;48.562;9.192;2023-07-02T05:29:08;20.50;60.10
10300;DHT22;5195;48.562;9.192;2023-07-02T05:31:44;20.40;60.20
10300;DHT22;5195;48.562;9.192;2023-07-02T05:34:20;20.30;59.60
10300;DHT22;5195;48.562;9.192;2023-07-02T05:36:55;20.30;59.60
10300;DHT22;5195;48.562;9.192;2023-07-02T05:39:31;20.60;58.80
10300;DHT22;5195;48.562;9.192;2023-07-02T05:42:07;20.70;60.00
10300;DHT22;5195;48.562;9.192;2023-07-02T05:44:43;20.70;60.00
10300;DHT22;5195;48.562;9.192;2023-07-02T05:47:19;20.80;59.70
10300;DHT22;5195;48.562;9.192;2023-07-02T05:49:55;20.80;59.60
10300;DHT22;5195;48.562;9.192;2023-07-02T05:52:30;20.70;59.90
10300;DHT22;5195;48.562;9.192;2023-07-02T05:55:09;20.50;60.40
10300;DHT22;5195;48.562;9.192;2023-07-02T05:57:45;20.70;59.90
10300;DHT22;5195;48.562;9.192;2023-07-02T06:00:20;21.00;58.60
10300;DHT22;5195;48.562;9.192;2023-07-02T06:02:55;21.40;57.80
10300;DHT22;5195;48.562;9.192;2023-07-02T06:05:31;21.60;57.00
10300;DHT22;5195;48.562;9.192;2023-07-02T06:08:07;21.70;56.90
10300;DHT22;5195;48.562;9.192;2023-07-02T06:10:45;21.70;56.90
10300;DHT22;5195;48.562;9.192;2023-07-02T06:13:19;21.70;57.70
10300;DHT22;5195;48.562;9.192;2023-07-02T06:15:55;22.00;57.80
10300;DHT22;5195;48.562;9.192;2023-07-02T06:18:30;22.00;57.80
10300;DHT22;5195;48.562;9.192;2023-07-02T06:21:06;22.30;58.30
10300;DHT22;5195;48.562;9.192;2023-07-02T06:23:45;22.40;59.00
10300;DHT22;5195;48.562;9.192;2023-07-02T06:26:20;22.80;54.80
10300;DHT22;5195;48.562;9.192;2023-07-02T06:28:56;23.70;52.80
10300;DHT22;5195;48.562;9.192;2023-07-02T06:31:32;23.70;52.80
10300;DHT22;5195;48.562;9.192;2023-07-02T06:34:08;24.10;54.30
10300;DHT22;5195;48.562;9.192;2023-07-02T06:36:43;24.30;55.40
10300;DHT22;5195;48.562;9.192;2023-07-02T06:39:19;24.90;51.50
10300;DHT22;5195;48.562;9.192;2023-07-02T06:41:55;25.80;48.90
10300;DHT22;5195;48.562;9.192;2023-07-02T06:44:31;25.80;48.80
10300;DHT22;5195;48.562;9.192;2023-07-02T06:47:06;26.40;47.40
10300;DHT22;5195;48.562;9.192;2023-07-02T06:49:42;26.60;49.30
10300;DHT22;5195;48.562;9.192;2023-07-02T06:52:18;27.40;46.00
10300;DHT22;5195;48.562;9.192;2023-07-02T06:54:54;27.40;46.00
10300;DHT22;5195;48.562;9.192;2023-07-02T06:57:29;27.60;48.10
10300;DHT22;5195;48.562;9.192;2023-07-02T07:00:05;27.40;48.30
10300;DHT22;5195;48.562;9.192;2023-07-02T07:02:41;26.90;48.30
10300;DHT22;5195;48.562;9.192;2023-07-02T07:05:16;26.80;45.20
10300;DHT22;5195;48.562;9.192;2023-07-02T07:07:52;26.60;47.00
10300;DHT22;5195;48.562;9.192;2023-07-02T07:10:28;26.50;45.10
10300;DHT22;5195;48.562;9.192;2023-07-02T07:13:03;26.20;46.30
10300;DHT22;5195;48.562;9.192;2023-07-02T07:15:39;26.10;45.30
10300;DHT22;5195;48.562;9.192;2023-07-02T07:18:14;25.80;46.90
10300;DHT22;5195;48.562;9.192;2023-07-02T07:20:50;25.50;47.70
10300;DHT22;5195;48.562;9.192;2023-07-02T07:23:26;25.20;48.40
10300;DHT22;5195;48.562;9.192;2023-07-02T07:26:01;25.20;47.10
10300;DHT22;5195;48.562;9.192;2023-07-02T07:28:37;24.90;48.00
10300;DHT22;5195;48.562;9.192;2023-07-02T07:31:12;24.90;46.80
10300;DHT22;5195;48.562;9.192;2023-07-02T07:33:48;24.70;47.80
10300;DHT22;5195;48.562;9.192;2023-07-02T07:36:24;24.30;48.60
10300;DHT22;5195;48.562;9.192;2023-07-02T07:38:59;24.00;49.50
10300;DHT22;5195;48.562;9.192;2023-07-02T07:41:35;23.70;50.20
10300;DHT22;5195;48.562;9.192;2023-07-02T07:44:10;23.90;48.30
10300;DHT22;5195;48.562;9.192;2023-07-02T07:46:46;24.00;48.30
10300;DHT22;5195;48.562;9.192;2023-07-02T07:49:22;24.00;48.30
10300;DHT22;5195;48.562;9.192;2023-07-02T07:51:58;24.10;49.60
10300;DHT22;5195;48.562;9.192;2023-07-02T07:54:33;24.00;50.30
10300;DHT22;5195;48.562;9.192;2023-07-02T07:57:09;24.60;49.10
10300;DHT22;5195;48.562;9.192;2023-07-02T07:59:45;24.50;48.50
10300;DHT22;5195;48.562;9.192;2023-07-02T08:02:21;25.20;48.00
10300;DHT22;5195;48.562;9.192;2023-07-02T08:04:56;25.50;48.90
10300;DHT22;5195;48.562;9.192;2023-07-02T08:07:33;25.80;45.80
10300;DHT22;5195;48.562;9.192;2023-07-02T08:10:08;25.80;45.80
10300;DHT22;5195;48.562;9.192;2023-07-02T08:12:44;26.20;43.40
10300;DHT22;5195;48.562;9.192;2023-07-02T08:15:19;26.50;43.00
10300;DHT22;5195;48.562;9.192;2023-07-02T08:17:55;26.50;44.30
10300;DHT22;5195;48.562;9.192;2023-07-02T08:20:31;26.30;44.90
10300;DHT22;5195;48.562;9.192;2023-07-02T08:23:06;26.20;45.70
10300;DHT22;5195;48.562;9.192;2023-07-02T08:25:42;26.50;43.50
10300;DHT22;5195;48.562;9.192;2023-07-02T08:28:17;26.90;41.80
10300;DHT22;5195;48.562;9.192;2023-07-02T08:30:53;26.70;42.60
10300;DHT22;5195;48.562;9.192;2023-07-02T08:33:29;26.60;40.90
10300;DHT22;5195;48.562;9.192;2023-07-02T08:36:05;26.30;42.40
10300;DHT22;5195;48.562;9.192;2023-07-02T08:38:40;26.10;41.60
10300;DHT22;5195;48.562;9.192;2023-07-02T08:41:16;26.20;41.60
10300;DHT22;5195;48.562;9.192;2023-07-02T08:46:27;26.30;43.30
10300;DHT22;5195;48.562;9.192;2023-07-02T08:49:02;26.50;42.10
10300;DHT22;5195;48.562;9.192;2023-07-02T08:51:38;26.70;43.00
10300;DHT22;5195;48.562;9.192;2023-07-02T08:54:14;26.90;40.40
10300;DHT22;5195;48.562;9.192;2023-07-02T08:56:50;26.90;40.40
10300;DHT22;5195;48.562;9.192;2023-07-02T08:59:25;27.10;39.40
10300;DHT22;5195;48.562;9.192;2023-07-02T09:02:01;27.10;38.80
10300;DHT22;5195;48.562;9.192;2023-07-02T09:04:36;26.80;40.20
10300;DHT22;5195;48.562;9.192;2023-07-02T09:07:12;26.70;38.60
10300;DHT22;5195;48.562;9.192;2023-07-02T09:09:49;26.30;40.40
10300;DHT22;5195;48.562;9.192;2023-07-02T09:12:29;25.90;43.30
10300;DHT22;5195;48.562;9.192;2023-07-02T09:15:04;25.90;42.80
10300;DHT22;5195;48.562;9.192;2023-07-02T09:17:40;25.80;43.40
10300;DHT22;5195;48.562;9.192;2023-07-02T09:20:17;26.50;41.20
10300;DHT22;5195;48.562;9.192;2023-07-02T09:22:55;26.40;41.10
10300;DHT22;5195;48.562;9.192;2023-07-02T09:25:36;26.90;40.30
10300;DHT22;5195;48.562;9.192;2023-07-02T09:28:21;27.20;41.00
10300;DHT22;5195;48.562;9.192;2023-07-02T09:30:57;27.10;41.10
10300;DHT22;5195;48.562;9.192;2023-07-02T09:33:30;27.00;41.30
10300;DHT22;5195;48.562;9.192;2023-07-02T09:36:06;26.90;38.30
10300;DHT22;5195;48.562;9.192;2023-07-02T09:38:41;26.90;38.20
10300;DHT22;5195;48.562;9.192;2023-07-02T09:41:17;27.30;38.50
10300;DHT22;5195;48.562;9.192;2023-07-02T09:43:53;28.10;37.10
10300;DHT22;5195;48.562;9.192;2023-07-02T09:46:29;28.00;37.00
10300;DHT22;5195;48.562;9.192;2023-07-02T09:49:06;28.40;37.40
10300;DHT22;5195;48.562;9.192;2023-07-02T09:51:42;28.90;36.70
10300;DHT22;5195;48.562;9.192;2023-07-02T09:54:18;28.80;36.00
10300;DHT22;5195;48.562;9.192;2023-07-02T09:56:55;28.80;37.30
10300;DHT22;5195;48.562;9.192;2023-07-02T09:59:30;28.40;37.70
10300;DHT22;5195;48.562;9.192;2023-07-02T10:02:06;28.30;35.20
10300;DHT22;5195;48.562;9.192;2023-07-02T10:04:45;28.30;36.30
10300;DHT22;5195;48.562;9.192;2023-07-02T10:07:28;28.10;37.30
10300;DHT22;5195;48.562;9.192;2023-07-02T10:10:03;27.30;38.40
10300;DHT22;5195;48.562;9.192;2023-07-02T10:12:45;27.10;39.10
10300;DHT22;5195;48.562;9.192;2023-07-02T10:15:23;27.10;39.00
10300;DHT22;5195;48.562;9.192;2023-07-02T10:17:54;27.00;39.00
10300;DHT22;5195;48.562;9.192;2023-07-02T10:20:37;26.80;37.90
10300;DHT22;5195;48.562;9.192;2023-07-02T10:23:02;26.60;38.20
10300;DHT22;5195;48.562;9.192;2023-07-02T10:25:28;26.40;38.80
10300;DHT22;5195;48.562;9.192;2023-07-02T10:27:53;26.20;39.20
10300;DHT22;5195;48.562;9.192;2023-07-02T10:30:18;26.30;36.80
10300;DHT22;5195;48.562;9.192;2023-07-02T10:32:44;26.40;38.20
10300;DHT22;5195;48.562;9.192;2023-07-02T10:35:14;26.70;36.90
10300;DHT22;5195;48.562;9.192;2023-07-02T10:37:38;27.00;35.00
10300;DHT22;5195;48.562;9.192;2023-07-02T10:40:06;27.00;36.40
10300;DHT22;5195;48.562;9.192;2023-07-02T10:42:32;26.90;37.60
10300;DHT22;5195;48.562;9.192;2023-07-02T10:44:58;27.10;36.50
10300;DHT22;5195;48.562;9.192;2023-07-02T10:47:24;27.50;35.70
10300;DHT22;5195;48.562;9.192;2023-07-02T10:49:49;27.70;37.40
10300;DHT22;5195;48.562;9.192;2023-07-02T10:52:15;28.00;33.60
10300;DHT22;5195;48.562;9.192;2023-07-02T10:54:45;28.20;34.00
10300;DHT22;5195;48.562;9.192;2023-07-02T10:57:10;28.30;33.60
10300;DHT22;5195;48.562;9.192;2023-07-02T10:59:35;28.20;35.30
10300;DHT22;5195;48.562;9.192;2023-07-02T11:02:01;28.10;36.10
10300;DHT22;5195;48.562;9.192;2023-07-02T11:04:26;27.80;36.40
10300;DHT22;5195;48.562;9.192;2023-07-02T11:06:52;27.90;33.80
10300;DHT22;5195;48.562;9.192;2023-07-02T11:09:18;27.90;34.90
10300;DHT22;5195;48.562;9.192;2023-07-02T11:11:53;27.70;35.70
10300;DHT22;5195;48.562;9.192;2023-07-02T11:14:35;27.60;36.20
10300;DHT22;5195;48.562;9.192;2023-07-02T11:17:04;27.80;34.30
10300;DHT22;5195;48.562;9.192;2023-07-02T11:19:29;28.10;33.40
10300;DHT22;5195;48.562;9.192;2023-07-02T11:21:56;28.60;33.30
10300;DHT22;5195;48.562;9.192;2023-07-02T11:24:31;28.60;32.60
10300;DHT22;5195;48.562;9.192;2023-07-02T11:26:56;28.90;33.10
10300;DHT22;5195;48.562;9.192;2023-07-02T11:29:22;29.10;33.10
10300;DHT22;5195;48.562;9.192;2023-07-02T11:31:48;29.40;30.80
10300;DHT22;5195;48.562;9.192;2023-07-02T11:34:21;29.30;31.10
10300;DHT22;5195;48.562;9.192;2023-07-02T11:36:46;29.40;31.20
10300;DHT22;5195;48.562;9.192;2023-07-02T11:39:12;29.50;31.20
10300;DHT22;5195;48.562;9.192;2023-07-02T11:41:41;29.60;31.80
10300;DHT22;5195;48.562;9.192;2023-07-02T11:44:06;29.50;32.50
10300;DHT22;5195;48.562;9.192;2023-07-02T11:46:31;29.50;30.00
10300;DHT22;5195;48.562;9.192;2023-07-02T11:48:57;29.30;31.90
10300;DHT22;5195;48.562;9.192;2023-07-02T11:51:22;29.20;31.40
10300;DHT22;5195;48.562;9.192;2023-07-02T11:53:49;29.00;32.00
10300;DHT22;5195;48.562;9.192;2023-07-02T11:56:14;28.90;31.90
10300;DHT22;5195;48.562;9.192;2023-07-02T11:58:40;28.80;33.10
10300;DHT22;5195;48.562;9.192;2023-07-02T12:01:05;28.90;31.60
10300;DHT22;5195;48.562;9.192;2023-07-02T12:03:32;28.90;32.80
10300;DHT22;5195;48.562;9.192;2023-07-02T12:05:58;28.80;33.50
10300;DHT22;5195;48.562;9.192;2023-07-02T12:08:25;28.90;32.40
10300;DHT22;5195;48.562;9.192;2023-07-02T12:10:51;29.20;32.70
10300;DHT22;5195;48.562;9.192;2023-07-02T12:13:18;29.30;33.10
10300;DHT22;5195;48.562;9.192;2023-07-02T12:15:46;29.10;33.00
10300;DHT22;5195;48.562;9.192;2023-07-02T12:18:12;28.90;33.30
10300;DHT22;5195;48.562;9.192;2023-07-02T12:20:42;28.80;33.30
10300;DHT22;5195;48.562;9.192;2023-07-02T12:23:11;28.70;33.60
10300;DHT22;5195;48.562;9.192;2023-07-02T12:25:37;28.50;33.40
10300;DHT22;5195;48.562;9.192;2023-07-02T12:28:04;28.40;33.60
10300;DHT22;5195;48.562;9.192;2023-07-02T12:30:33;28.50;32.30
10300;DHT22;5195;48.562;9.192;2023-07-02T12:33:01;28.60;32.50
10300;DHT22;5195;48.562;9.192;2023-07-02T12:35:27;28.50;32.60
10300;DHT22;5195;48.562;9.192;2023-07-02T12:37:54;28.50;32.60
10300;DHT22;5195;48.562;9.192;2023-07-02T12:40:20;28.40;32.20
10300;DHT22;5195;48.562;9.192;2023-07-02T12:42:45;28.20;31.70
10300;DHT22;5195;48.562;9.192;2023-07-02T12:45:12;28.70;30.30
10300;DHT22;5195;48.562;9.192;2023-07-02T12:47:37;28.70;30.30
10300;DHT22;5195;48.562;9.192;2023-07-02T12:50:03;28.80;31.00
10300;DHT22;5195;48.562;9.192;2023-07-02T12:52:29;29.10;29.30
10300;DHT22;5195;48.562;9.192;2023-07-02T13:19:15;30.00;27.30
10300;DHT22;5195;48.562;9.192;2023-07-02T13:21:41;29.20;29.10
10300;DHT22;5195;48.562;9.192;2023-07-02T13:24:07;29.20;29.10
10300;DHT22;5195;48.562;9.192;2023-07-02T13:26:32;29.00;28.50
10300;DHT22;5195;48.562;9.192;2023-07-02T13:28:59;29.00;30.00
10300;DHT22;5195;48.562;9.192;2023-07-02T13:31:25;28.90;29.60
10300;DHT22;5195;48.562;9.192;2023-07-02T13:33:54;28.90;30.10
10300;DHT22;5195;48.562;9.192;2023-07-02T13:36:19;28.70;30.50
10300;DHT22;5195;48.562;9.192;2023-07-02T13:38:45;28.50;30.60
10300;DHT22;5195;48.562;9.192;2023-07-02T13:41:11;28.60;28.30
10300;DHT22;5195;48.562;9.192;2023-07-02T13:43:38;28.50;29.30
10300;DHT22;5195;48.562;9.192;2023-07-02T13:46:04;28.40;29.30
10300;DHT22;5195;48.562;9.192;2023-07-02T13:48:29;28.30;29.20
10300;DHT22;5195;48.562;9.192;2023-07-02T13:50:55;28.10;30.00
10300;DHT22;5195;48.562;9.192;2023-07-02T13:53:21;28.30;29.00
10300;DHT22;5195;48.562;9.192;2023-07-02T13:55:46;28.30;30.00
10300;DHT22;5195;48.562;9.192;2023-07-02T13:58:12;28.40;29.90
10300;DHT22;5195;48.562;9.192;2023-07-02T14:00:39;28.40;29.90
10300;DHT22;5195;48.562;9.192;2023-07-02T14:03:05;28.20;29.80
10300;DHT22;5195;48.562;9.192;2023-07-02T14:05:30;28.00;30.20
10300;DHT22;5195;48.562;9.192;2023-07-02T14:07:56;27.90;30.60
10300;DHT22;5195;48.562;9.192;2023-07-02T14:10:21;28.20;31.20
10300;DHT22;5195;48.562;9.192;2023-07-02T14:12:47;28.60;29.90
10300;DHT22;5195;48.562;9.192;2023-07-02T14:15:13;28.90;29.40
10300;DHT22;5195;48.562;9.192;2023-07-02T14:17:38;28.90;30.00
10300;DHT22;5195;48.562;9.192;2023-07-02T14:20:06;29.10;29.60
10300;DHT22;5195;48.562;9.192;2023-07-02T14:22:31;29.10;29.60
10300;DHT22;5195;48.562;9.192;2023-07-02T14:24:56;29.00;30.00
10300;DHT22;5195;48.562;9.192;2023-07-02T14:27:22;28.60;30.40
10300;DHT22;5195;48.562;9.192;2023-07-02T14:29:48;28.60;29.40
10300;DHT22;5195;48.562;9.192;2023-07-02T14:32:14;28.60;29.40
10300;DHT22;5195;48.562;9.192;2023-07-02T14:34:39;28.50;30.00
10300;DHT22;5195;48.562;9.192;2023-07-02T14:37:05;28.20;30.40
10300;DHT22;5195;48.562;9.192;2023-07-02T14:39:30;28.00;30.90
10300;DHT22;5195;48.562;9.192;2023-07-02T14:41:57;28.10;30.80
10300;DHT22;5195;48.562;9.192;2023-07-02T14:44:24;28.10;30.20
10300;DHT22;5195;48.562;9.192;2023-07-02T14:46:50;28.20;29.50
10300;DHT22;5195;48.562;9.192;2023-07-02T14:49:17;27.90;30.60
10300;DHT22;5195;48.562;9.192;2023-07-02T14:51:43;27.90;30.50
10300;DHT22;5195;48.562;9.192;2023-07-02T14:54:09;28.00;30.00
10300;DHT22;5195;48.562;9.192;2023-07-02T14:56:34;27.90;30.80
10300;DHT22;5195;48.562;9.192;2023-07-02T14:59:04;27.80;31.50
10300;DHT22;5195;48.562;9.192;2023-07-02T15:01:30;27.70;32.10
10300;DHT22;5195;48.562;9.192;2023-07-02T15:03:56;27.80;31.40
10300;DHT22;5195;48.562;9.192;2023-07-02T15:06:22;27.80;31.10
10300;DHT22;5195;48.562;9.192;2023-07-02T15:08:48;28.50;29.70
10300;DHT22;5195;48.562;9.192;2023-07-02T15:11:14;28.50;29.70
10300;DHT22;5195;48.562;9.192;2023-07-02T15:13:39;28.50;30.30
10300;DHT22;5195;48.562;9.192;2023-07-02T15:16:06;28.50;29.70
10300;DHT22;5195;48.562;9.192;2023-07-02T15:18:32;28.60;29.40
10300;DHT22;5195;48.562;9.192;2023-07-02T15:20:57;28.40;30.00
10300;DHT22;5195;48.562;9.192;2023-07-02T15:23:23;28.30;29.90
10300;DHT22;5195;48.562;9.192;2023-07-02T15:25:56;28.40;30.00
10300;DHT22;5195;48.562;9.192;2023-07-02T15:28:22;28.60;30.10
10300;DHT22;5195;48.562;9.192;2023-07-02T15:30:56;28.40;31.10
10300;DHT22;5195;48.562;9.192;2023-07-02T15:33:21;28.50;30.40
10300;DHT22;5195;48.562;9.192;2023-07-02T15:35:46;28.60;30.50
10300;DHT22;5195;48.562;9.192;2023-07-02T15:38:11;28.40;30.90
10300;DHT22;5195;48.562;9.192;2023-07-02T15:40:37;28.10;31.30
10300;DHT22;5195;48.562;9.192;2023-07-02T15:43:03;28.10;30.30
10300;DHT22;5195;48.562;9.192;2023-07-02T15:45:28;28.20;29.70
10300;DHT22;5195;48.562;9.192;2023-07-02T15:47:54;28.30;29.50
10300;DHT22;5195;48.562;9.192;2023-07-02T15:50:19;28.10;30.00
10300;DHT22;5195;48.562;9.192;2023-07-02T15:52:45;27.80;30.80
10300;DHT22;5195;48.562;9.192;2023-07-02T15:55:10;27.80;29.70
10300;DHT22;5195;48.562;9.192;2023-07-02T15:57:36;27.70;30.30
10300;DHT22;5195;48.562;9.192;2023-07-02T16:00:02;27.70;30.00
10300;DHT22;5195;48.562;9.192;2023-07-02T16:02:47;27.60;30.60
10300;DHT22;5195;48.562;9.192;2023-07-02T16:05:23;27.60;29.80
10300;DHT22;5195;48.562;9.192;2023-07-02T16:07:58;27.40;30.70
10300;DHT22;5195;48.562;9.192;2023-07-02T16:10:34;27.10;31.30
10300;DHT22;5195;48.562;9.192;2023-07-02T16:13:10;26.90;31.70
10300;DHT22;5195;48.562;9.192;2023-07-02T16:15:45;26.80;32.20
10300;DHT22;5195;48.562;9.192;2023-07-02T16:18:21;27.10;31.20
10300;DHT22;5195;48.562;9.192;2023-07-02T16:20:57;27.10;31.20
10300;DHT22;5195;48.562;9.192;2023-07-02T16:23:32;27.20;31.20
10300;DHT22;5195;48.562;9.192;2023-07-02T16:26:09;27.10;31.50
10300;DHT22;5195;48.562;9.192;2023-07-02T16:28:43;27.00;31.10
10300;DHT22;5195;48.562;9.192;2023-07-02T16:31:19;27.20;29.20
10300;DHT22;5195;48.562;9.192;2023-07-02T16:33:55;27.60;29.50
10300;DHT22;5195;48.562;9.192;2023-07-02T16:36:30;27.80;29.10
10300;DHT22;5195;48.562;9.192;2023-07-02T16:39:06;28.00;28.70
10300;DHT22;5195;48.562;9.192;2023-07-02T16:41:41;28.10;28.60
10300;DHT22;5195;48.562;9.192;2023-07-02T16:44:21;27.80;29.30
10300;DHT22;5195;48.562;9.192;2023-07-02T16:46:57;27.80;29.60